createdAt,value
2023-04-15T00:01:29.480Z,11.00
2023-04-15T00:03:57.113Z,10.80
2023-04-15T00:06:24.092Z,10.80
2023-04-15T00:08:50.813Z,10.80
2023-04-15T00:11:19.714Z,10.80
2023-04-15T00:13:49.499Z,10.70
2023-04-15T00:16:21.503Z,10.70
2023-04-15T00:18:51.894Z,10.70
2023-04-15T00:21:18.970Z,10.80
2023-04-15T00:23:52.950Z,10.70
2023-04-15T00:26:21.715Z,10.70
2023-04-15T00:28:49.720Z,10.60
2023-04-15T00:31:31.541Z,10.70
2023-04-15T00:34:04.657Z,10.70
2023-04-15T00:36:39.351Z,10.70
2023-04-15T00:39:07.894Z,10.60
2023-04-15T00:41:42.145Z,10.60
2023-04-15T00:44:12.453Z,10.60
2023-04-15T00:46:40.072Z,10.50
2023-04-15T00:49:07.670Z,10.50
2023-04-15T00:51:37.494Z,10.60
2023-04-15T00:54:07.979Z,10.50
2023-04-15T00:56:39.418Z,10.50
2023-04-15T00:59:07.130Z,10.50
2023-04-15T01:01:35.330Z,10.40
2023-04-15T01:04:05.483Z,10.50
2023-04-15T01:06:35.893Z,10.50
2023-04-15T01:09:03.635Z,10.50
2023-04-15T01:11:34.377Z,10.50
2023-04-15T01:14:08.607Z,10.50
2023-04-15T01:16:42.481Z,10.50
2023-04-15T01:19:10.728Z,10.50
2023-04-15T01:21:41.218Z,10.50
2023-04-15T01:24:09.905Z,10.50
2023-04-15T01:26:44.561Z,10.50
2023-04-15T01:29:11.668Z,10.50
2023-04-15T01:31:41.042Z,10.50
2023-04-15T01:34:12.452Z,10.40
2023-04-15T01:36:41.086Z,10.40
2023-04-15T01:39:10.514Z,10.40
2023-04-15T01:41:43.555Z,10.40
2023-04-15T01:44:10.454Z,10.30
2023-04-15T01:46:37.285Z,10.40
2023-04-15T01:49:04.059Z,10.40
2023-04-15T01:51:30.839Z,10.40
2023-04-15T01:53:57.684Z,10.40
2023-04-15T01:56:24.689Z,10.30
2023-04-15T01:58:51.841Z,10.30
2023-04-15T02:01:22.313Z,10.30
2023-04-15T02:03:49.430Z,10.30
2023-04-15T02:06:16.544Z,10.30
2023-04-15T02:08:45.743Z,10.30
2023-04-15T02:11:12.586Z,10.30
2023-04-15T02:13:39.383Z,10.40
2023-04-15T02:16:15.859Z,10.30
2023-04-15T02:18:47.018Z,10.30
2023-04-15T02:21:13.982Z,10.30
2023-04-15T02:23:41.149Z,10.30
2023-04-15T02:26:08.300Z,10.30
2023-04-15T02:28:36.918Z,10.30
2023-04-15T02:31:09.797Z,10.30
2023-04-15T02:33:39.330Z,10.30
2023-04-15T02:36:08.537Z,10.30
2023-04-15T02:38:36.595Z,10.30
2023-04-15T02:41:03.416Z,10.30
2023-04-15T02:43:30.696Z,10.20
2023-04-15T02:45:57.533Z,10.20
2023-04-15T02:48:24.483Z,10.20
2023-04-15T02:50:52.064Z,10.20
2023-04-15T02:53:20.049Z,10.10
2023-04-15T02:55:46.908Z,10.10
2023-04-15T02:58:13.727Z,10.10
2023-04-15T03:00:40.513Z,10.20
2023-04-15T03:03:07.532Z,10.10
2023-04-15T03:05:34.882Z,10.10
2023-04-15T03:08:01.643Z,10.10
2023-04-15T03:10:28.684Z,10.00
2023-04-15T03:12:55.782Z,10.00
2023-04-15T03:15:23.290Z,10.10
2023-04-15T03:17:50.344Z,10.00
2023-04-15T03:20:17.321Z,10.10
2023-04-15T03:22:45.036Z,10.10
2023-04-15T03:25:11.927Z,10.10
2023-04-15T03:27:39.638Z,10.00
2023-04-15T03:30:08.135Z,10.00
2023-04-15T03:32:35.145Z,10.00
2023-04-15T03:35:03.844Z,10.00
2023-04-15T03:37:31.396Z,9.90
2023-04-15T03:39:58.382Z,10.00
2023-04-15T03:42:25.762Z,10.00
2023-04-15T03:44:53.858Z,10.00
2023-04-15T03:47:21.225Z,9.90
2023-04-15T03:49:48.094Z,10.00
2023-04-15T03:52:15.122Z,10.00
2023-04-15T03:54:41.984Z,10.00
2023-04-15T03:57:09.114Z,10.00
2023-04-15T03:59:36.746Z,10.00
2023-04-15T04:02:05.544Z,10.00
2023-04-15T04:04:41.376Z,10.00
2023-04-15T04:07:14.311Z,10.00
2023-04-15T04:09:42.251Z,10.00
2023-04-15T04:12:09.657Z,10.00
2023-04-15T04:14:36.400Z,10.00
2023-04-15T04:17:04.198Z,9.90
2023-04-15T04:19:31.393Z,9.90
2023-04-15T04:21:59.190Z,10.00
2023-04-15T04:24:26.735Z,9.90
2023-04-15T04:26:54.674Z,9.90
2023-04-15T04:29:21.467Z,9.80
2023-04-15T04:31:48.936Z,9.90
2023-04-15T04:34:16.293Z,9.80
2023-04-15T04:36:43.163Z,9.80
2023-04-15T04:39:09.910Z,9.90
2023-04-15T04:41:36.657Z,9.80
2023-04-15T04:44:04.272Z,9.80
2023-04-15T04:46:31.079Z,9.80
2023-04-15T04:48:58.214Z,9.80
2023-04-15T04:51:25.109Z,9.90
2023-04-15T04:53:51.955Z,9.90
2023-04-15T04:56:19.928Z,9.80
2023-04-15T04:58:47.955Z,9.90
2023-04-15T05:01:15.954Z,9.90
2023-04-15T05:03:42.944Z,10.00
2023-04-15T05:06:09.878Z,10.00
2023-04-15T05:08:39.910Z,10.00
2023-04-15T05:11:08.118Z,9.90
2023-04-15T05:13:34.972Z,10.00
2023-04-15T05:16:02.212Z,10.10
2023-04-15T05:18:29.216Z,10.00
2023-04-15T05:20:56.393Z,9.90
2023-04-15T05:23:23.645Z,10.10
2023-04-15T05:25:50.550Z,10.10
2023-04-15T05:28:17.291Z,10.20
2023-04-15T05:30:44.125Z,10.30
2023-04-15T05:33:10.951Z,10.30
2023-04-15T05:35:37.818Z,10.20
2023-04-15T05:38:04.644Z,10.20
2023-04-15T05:40:31.787Z,10.10
2023-04-15T05:42:58.597Z,10.20
2023-04-15T05:45:25.528Z,10.20
2023-04-15T05:47:54.461Z,10.20
2023-04-15T05:50:24.988Z,10.20
2023-04-15T05:52:51.725Z,10.10
2023-04-15T05:55:18.507Z,10.10
2023-04-15T05:57:45.286Z,10.20
2023-04-15T06:00:12.199Z,10.20
2023-04-15T06:02:39.373Z,10.20
2023-04-15T06:05:10.060Z,10.10
2023-04-15T06:07:37.402Z,10.10
2023-04-15T06:10:04.946Z,10.10
2023-04-15T06:12:31.886Z,10.10
2023-04-15T06:15:00.128Z,10.20
2023-04-15T06:17:27.277Z,10.50
2023-04-15T06:19:58.003Z,10.60
2023-04-15T06:22:27.216Z,10.70
2023-04-15T06:24:54.689Z,10.80
2023-04-15T06:27:23.076Z,10.80
2023-04-15T06:29:49.899Z,11.00
2023-04-15T06:32:39.676Z,10.80
2023-04-15T06:35:06.600Z,10.80
2023-04-15T06:37:33.383Z,11.00
2023-04-15T06:40:00.711Z,11.10
2023-04-15T06:42:29.057Z,11.20
2023-04-15T06:44:56.658Z,11.30
2023-04-15T06:47:24.737Z,11.30
2023-04-15T06:49:52.064Z,11.20
2023-04-15T06:52:19.019Z,11.30
2023-04-15T06:54:45.861Z,11.30
2023-04-15T06:57:12.587Z,11.40
2023-04-15T06:59:39.383Z,11.50
2023-04-15T07:02:07.534Z,11.60
2023-04-15T07:04:34.345Z,11.50
2023-04-15T07:07:02.631Z,11.40
2023-04-15T07:09:29.816Z,11.40
2023-04-15T07:11:56.570Z,11.50
2023-04-15T07:14:23.286Z,11.50
2023-04-15T07:16:50.177Z,11.60
2023-04-15T07:19:17.448Z,11.80
2023-04-15T07:21:44.259Z,11.80
2023-04-15T07:24:13.069Z,11.70
2023-04-15T07:26:39.901Z,11.70
2023-04-15T07:29:08.836Z,11.70
2023-04-15T07:31:37.164Z,11.70
2023-04-15T07:34:05.210Z,12.00
2023-04-15T07:36:33.860Z,11.90
2023-04-15T07:39:02.345Z,12.00
2023-04-15T07:41:32.592Z,11.90
2023-04-15T07:44:01.943Z,11.80
2023-04-15T07:46:28.736Z,12.00
2023-04-15T07:48:56.484Z,11.80
2023-04-15T07:51:23.617Z,11.90
2023-04-15T07:53:50.830Z,11.90
2023-04-15T07:56:17.858Z,11.90
2023-04-15T07:58:45.667Z,11.90
2023-04-15T08:01:14.966Z,12.00
2023-04-15T08:03:42.051Z,12.20
2023-04-15T08:06:10.065Z,12.30
2023-04-15T08:08:36.868Z,12.30
2023-04-15T08:11:03.628Z,12.60
2023-04-15T08:13:30.815Z,12.70
2023-04-15T08:16:18.892Z,12.70
2023-04-15T08:18:49.771Z,12.70
2023-04-15T08:21:17.244Z,12.80
2023-04-15T08:23:45.405Z,12.80
2023-04-15T08:26:15.261Z,12.80
2023-04-15T08:28:47.222Z,12.90
2023-04-15T08:31:18.287Z,12.90
2023-04-15T08:33:46.063Z,12.80
2023-04-15T08:36:21.212Z,13.00
2023-04-15T08:38:49.734Z,12.80
2023-04-15T08:41:26.295Z,12.70
2023-04-15T08:43:59.153Z,12.60
2023-04-15T08:46:26.961Z,12.60
2023-04-15T08:48:56.550Z,12.70
2023-04-15T08:51:25.154Z,12.60
2023-04-15T08:53:53.651Z,12.60
2023-04-15T08:56:24.314Z,12.70
2023-04-15T08:58:51.123Z,12.60
2023-04-15T09:01:18.676Z,12.70
2023-04-15T09:03:45.954Z,12.80
2023-04-15T09:06:12.879Z,12.90
2023-04-15T09:08:41.751Z,12.70
2023-04-15T09:11:12.530Z,12.80
2023-04-15T09:13:39.674Z,12.80
2023-04-15T09:16:06.852Z,13.20
2023-04-15T09:18:34.577Z,13.40
2023-04-15T09:21:11.547Z,13.40
2023-04-15T09:23:39.370Z,13.60
2023-04-15T09:26:06.657Z,13.60
2023-04-15T09:28:41.831Z,13.60
2023-04-15T09:31:08.700Z,13.70
2023-04-15T09:33:53.865Z,13.60
2023-04-15T09:36:20.708Z,13.80
2023-04-15T09:38:57.424Z,13.80
2023-04-15T09:41:24.999Z,13.80
2023-04-15T09:43:51.972Z,14.10
2023-04-15T09:46:22.431Z,14.00
2023-04-15T09:49:07.563Z,14.10
2023-04-15T09:51:35.702Z,14.10
2023-04-15T09:54:04.519Z,14.40
2023-04-15T09:56:39.067Z,14.30
2023-04-15T09:59:09.621Z,14.60
2023-04-15T10:01:42.687Z,14.70
2023-04-15T10:04:14.362Z,14.50
2023-04-15T10:06:43.050Z,14.80
2023-04-15T10:09:10.185Z,14.90
2023-04-15T10:11:37.044Z,15.10
2023-04-15T10:14:04.315Z,15.30
2023-04-15T10:16:32.756Z,15.40
2023-04-15T10:19:01.585Z,15.60
2023-04-15T10:21:30.894Z,15.60
2023-04-15T10:23:58.370Z,15.60
2023-04-15T10:26:25.431Z,15.40
2023-04-15T10:29:06.328Z,15.30
2023-04-15T10:31:41.359Z,15.20
2023-04-15T10:34:19.977Z,15.20
2023-04-15T10:37:17.019Z,15.40
2023-04-15T10:39:50.813Z,15.40
2023-04-15T10:45:46.503Z,15.90
2023-04-15T10:51:09.442Z,16.10
2023-04-15T10:53:37.997Z,16.10
2023-04-15T10:56:08.098Z,16.00
2023-04-15T10:58:42.019Z,15.90
2023-04-15T11:01:09.005Z,16.10
2023-04-15T11:03:39.922Z,15.90
2023-04-15T11:06:07.174Z,15.90
2023-04-15T11:08:52.687Z,15.90
2023-04-15T11:11:19.472Z,16.00
2023-04-15T11:13:51.785Z,16.50
2023-04-15T11:16:18.650Z,16.30
2023-04-15T11:18:55.909Z,16.20
2023-04-15T11:21:24.949Z,16.00
2023-04-15T11:23:52.121Z,15.90
2023-04-15T11:26:19.075Z,15.70
2023-04-15T11:28:46.052Z,15.70
2023-04-15T11:31:14.333Z,15.80
2023-04-15T11:33:48.077Z,16.00
2023-04-15T11:36:14.932Z,16.10
2023-04-15T11:38:45.893Z,16.20
2023-04-15T11:41:12.802Z,16.20
2023-04-15T11:43:39.630Z,16.40
2023-04-15T11:46:06.415Z,16.50
2023-04-15T11:48:34.133Z,16.50
2023-04-15T11:51:02.048Z,16.30
2023-04-15T11:53:49.076Z,16.30
2023-04-15T11:56:18.778Z,16.40
2023-04-15T11:58:46.744Z,16.30
2023-04-15T12:01:13.778Z,16.50
2023-04-15T12:03:45.425Z,16.50
2023-04-15T12:06:19.478Z,16.50
2023-04-15T12:08:49.289Z,16.40
2023-04-15T12:11:17.082Z,16.60
2023-04-15T12:13:50.456Z,16.60
2023-04-15T12:16:18.117Z,16.60
2023-04-15T12:18:45.588Z,16.70
2023-04-15T12:21:12.479Z,16.80
2023-04-15T12:23:40.347Z,16.90
2023-04-15T12:26:07.578Z,16.70
2023-04-15T12:28:37.688Z,16.90
2023-04-15T12:31:09.424Z,16.80
2023-04-15T12:33:36.577Z,16.90
2023-04-15T12:36:03.706Z,16.70
2023-04-15T12:38:31.635Z,16.60
2023-04-15T12:40:58.901Z,16.90
2023-04-15T12:43:25.827Z,17.10
2023-04-15T12:45:52.626Z,17.00
2023-04-15T12:48:19.373Z,17.00
2023-04-15T12:50:46.461Z,16.70
2023-04-15T12:53:16.165Z,16.70
2023-04-15T12:55:42.864Z,16.80
2023-04-15T12:58:11.830Z,16.90
2023-04-15T13:00:38.876Z,16.80
2023-04-15T13:03:07.027Z,16.80
2023-04-15T13:05:34.270Z,16.80
2023-04-15T13:08:01.145Z,16.90
2023-04-15T13:10:28.524Z,16.80
2023-04-15T13:12:56.746Z,16.80
2023-04-15T13:15:23.874Z,16.70
2023-04-15T13:17:50.749Z,16.60
2023-04-15T13:20:17.708Z,16.60
2023-04-15T13:22:44.456Z,16.70
2023-04-15T13:25:11.727Z,16.80
2023-04-15T13:27:38.471Z,17.00
2023-04-15T13:30:06.200Z,17.00
2023-04-15T13:32:33.864Z,17.00
2023-04-15T13:35:00.685Z,17.10
2023-04-15T13:37:28.132Z,16.90
2023-04-15T13:40:31.408Z,16.80
2023-04-15T13:42:48.924Z,16.70
2023-04-15T13:45:16.315Z,16.50
2023-04-15T13:47:43.177Z,16.60
2023-04-15T13:50:10.756Z,16.70
2023-04-15T13:52:37.574Z,16.60
2023-04-15T13:55:18.009Z,16.40
2023-04-15T13:57:46.596Z,16.30
2023-04-15T14:00:14.201Z,16.20
2023-04-15T14:02:42.731Z,16.30
2023-04-15T14:05:10.484Z,16.30
2023-04-15T14:07:37.608Z,16.20
2023-04-15T14:10:04.666Z,16.20
2023-04-15T14:12:31.453Z,16.20
2023-04-15T14:14:59.530Z,16.50
2023-04-15T14:17:26.522Z,16.30
2023-04-15T14:19:56.384Z,16.50
2023-04-15T14:22:23.262Z,16.30
2023-04-15T14:24:50.089Z,16.30
2023-04-15T14:27:17.333Z,16.40
2023-04-15T14:29:46.286Z,16.30
2023-04-15T14:32:14.086Z,16.40
2023-04-15T14:34:41.507Z,16.30
2023-04-15T14:37:08.381Z,16.40
2023-04-15T14:39:35.336Z,16.40
2023-04-15T14:42:03.029Z,16.40
2023-04-15T14:47:02.958Z,16.60
2023-04-15T14:49:30.485Z,16.50
2023-04-15T14:51:57.599Z,16.50
2023-04-15T14:54:24.407Z,16.40
2023-04-15T14:56:51.287Z,16.40
2023-04-15T14:59:18.155Z,16.70
2023-04-15T15:01:45.029Z,16.60
2023-04-15T15:04:12.319Z,16.50
2023-04-15T15:06:39.826Z,16.50
2023-04-15T15:09:06.909Z,16.60
2023-04-15T15:11:34.036Z,16.60
2023-04-15T15:14:00.815Z,16.60
2023-04-15T15:16:27.886Z,16.40
2023-04-15T15:18:55.135Z,16.20
2023-04-15T15:21:21.878Z,16.20
2023-04-15T15:23:48.635Z,15.90
2023-04-15T15:26:16.914Z,15.80
2023-04-15T15:28:45.672Z,15.90
2023-04-15T15:31:12.509Z,15.70
2023-04-15T15:33:39.539Z,15.80
2023-04-15T15:36:06.379Z,16.00
2023-04-15T15:38:33.572Z,15.70
2023-04-15T15:41:05.489Z,15.60
2023-04-15T15:43:32.636Z,15.70
2023-04-15T15:45:59.416Z,15.70
2023-04-15T15:48:26.212Z,15.60
2023-04-15T15:50:53.803Z,15.40
2023-04-15T15:53:21.202Z,15.40
2023-04-15T15:55:48.430Z,15.30
2023-04-15T15:58:15.373Z,15.20
2023-04-15T16:00:42.843Z,15.20
2023-04-15T16:03:09.787Z,15.20
2023-04-15T16:05:37.978Z,15.30
2023-04-15T16:08:05.006Z,15.20
2023-04-15T16:10:31.854Z,15.30
2023-04-15T16:12:58.705Z,15.10
2023-04-15T16:15:26.103Z,15.00
2023-04-15T16:17:53.027Z,15.00
2023-04-15T16:20:19.852Z,15.10
2023-04-15T16:22:46.725Z,15.10
2023-04-15T16:25:13.562Z,14.80
2023-04-15T16:27:54.656Z,14.80
2023-04-15T16:30:26.108Z,14.80
2023-04-15T16:32:53.165Z,14.80
2023-04-15T16:35:20.137Z,14.70
2023-04-15T16:37:46.846Z,14.70
2023-04-15T16:40:13.708Z,14.70
2023-04-15T16:42:43.757Z,14.60
2023-04-15T16:45:10.825Z,14.60
2023-04-15T16:47:37.711Z,14.60
2023-04-15T16:50:06.995Z,14.50
2023-04-15T16:52:33.929Z,14.50
2023-04-15T16:55:00.809Z,14.40
2023-04-15T16:57:50.715Z,14.30
2023-04-15T17:00:14.703Z,14.30
2023-04-15T17:02:41.616Z,14.20
2023-04-15T17:05:08.647Z,14.10
2023-04-15T17:07:35.397Z,14.00
2023-04-15T17:10:02.161Z,14.00
2023-04-15T17:12:29.401Z,13.90
2023-04-15T17:14:56.216Z,13.90
2023-04-15T17:17:23.087Z,13.80
2023-04-15T17:19:52.073Z,13.70
2023-04-15T17:22:19.849Z,13.70
2023-04-15T17:24:46.646Z,13.80
2023-04-15T17:27:22.031Z,13.70
2023-04-15T17:29:48.920Z,13.60
2023-04-15T17:32:15.661Z,13.50
2023-04-15T17:34:50.453Z,13.50
2023-04-15T17:37:18.097Z,13.50
2023-04-15T17:39:44.976Z,13.50
2023-04-15T17:42:11.774Z,13.40
2023-04-15T17:44:41.773Z,13.40
2023-04-15T17:47:08.540Z,13.30
2023-04-15T17:49:37.929Z,13.50
2023-04-15T17:52:07.636Z,13.40
2023-04-15T17:54:34.632Z,13.30
2023-04-15T17:57:03.419Z,13.20
2023-04-15T17:59:30.294Z,13.20
2023-04-15T18:02:00.533Z,13.10
2023-04-15T18:04:27.465Z,13.10
2023-04-15T18:06:54.502Z,13.10
2023-04-15T18:09:21.788Z,13.00
2023-04-15T18:11:51.106Z,13.00
2023-04-15T18:14:27.115Z,13.00
2023-04-15T18:17:00.653Z,13.00
2023-04-15T18:19:27.551Z,13.00
2023-04-15T18:21:54.450Z,12.90
2023-04-15T18:24:23.145Z,12.90
2023-04-15T18:26:50.130Z,12.80
2023-04-15T18:29:16.984Z,12.80
2023-04-15T18:31:44.014Z,12.80
2023-04-15T18:34:12.076Z,12.70
2023-04-15T18:36:38.874Z,12.70
2023-04-15T18:39:05.933Z,12.70
2023-04-15T18:41:32.941Z,12.60
2023-04-15T18:43:59.687Z,12.60
2023-04-15T18:46:26.449Z,12.50
2023-04-15T18:48:53.242Z,12.50
2023-04-15T18:51:20.048Z,12.50
2023-04-15T18:53:46.918Z,12.30
2023-04-15T18:56:13.748Z,12.30
2023-04-15T18:59:18.220Z,12.30
2023-04-15T19:01:31.276Z,12.20
2023-04-15T19:03:58.115Z,12.20
2023-04-15T19:06:29.524Z,12.20
2023-04-15T19:08:58.696Z,12.20
2023-04-15T19:11:26.133Z,12.10
2023-04-15T19:13:53.249Z,12.10
2023-04-15T19:16:20.343Z,12.10
2023-04-15T19:18:47.118Z,12.10
2023-04-15T19:21:14.134Z,12.10
2023-04-15T19:23:43.051Z,12.10
2023-04-15T19:26:11.990Z,12.00
2023-04-15T19:28:38.877Z,12.00
2023-04-15T19:31:05.773Z,11.90
2023-04-15T19:33:32.620Z,11.90
2023-04-15T19:36:01.531Z,11.90
2023-04-15T19:38:28.391Z,11.80
2023-04-15T19:40:55.265Z,11.80
2023-04-15T19:43:22.249Z,11.70
2023-04-15T19:45:52.244Z,11.70
2023-04-15T19:48:21.269Z,11.70
2023-04-15T19:50:48.170Z,11.70
2023-04-15T19:53:15.693Z,11.60
2023-04-15T19:55:45.846Z,11.60
2023-04-15T19:58:12.783Z,11.50
2023-04-15T20:03:23.531Z,11.40
2023-04-15T20:05:50.856Z,11.40
2023-04-15T20:08:18.036Z,11.40
2023-04-15T20:10:49.201Z,11.30
2023-04-15T20:13:18.950Z,11.30
2023-04-15T20:15:47.527Z,11.30
2023-04-15T20:18:14.852Z,11.30
2023-04-15T20:20:43.312Z,11.30
2023-04-15T20:23:10.089Z,11.30
2023-04-15T20:25:36.864Z,11.20
2023-04-15T20:28:03.700Z,11.20
2023-04-15T20:30:30.569Z,11.20
2023-04-15T20:32:57.465Z,11.20
2023-04-15T20:35:28.055Z,11.20
2023-04-15T20:37:54.871Z,11.20
2023-04-15T20:40:22.055Z,11.10
2023-04-15T20:42:49.130Z,11.10
2023-04-15T20:45:16.210Z,11.10
2023-04-15T20:47:43.111Z,11.00
2023-04-15T20:50:10.151Z,11.00
2023-04-15T20:52:36.928Z,10.90
2023-04-15T20:55:03.835Z,10.90
2023-04-15T20:57:30.555Z,10.80
2023-04-15T20:59:57.374Z,10.80
2023-04-15T21:02:24.488Z,10.80
2023-04-15T21:04:54.082Z,10.70
2023-04-15T21:07:21.088Z,10.70
2023-04-15T21:09:47.972Z,10.70
2023-04-15T21:12:14.728Z,10.70
2023-04-15T21:14:41.521Z,10.60
2023-04-15T21:17:11.164Z,10.50
2023-04-15T21:19:38.588Z,10.50
2023-04-15T21:22:05.380Z,10.50
2023-04-15T21:24:32.258Z,10.50
2023-04-15T21:26:58.995Z,10.40
2023-04-15T21:29:26.078Z,10.50
2023-04-15T21:31:52.890Z,10.40
2023-04-15T21:34:21.050Z,10.40
2023-04-15T21:36:48.258Z,10.40
2023-04-15T21:39:15.142Z,10.30
2023-04-15T21:41:42.056Z,10.30
2023-04-15T21:44:08.843Z,10.30
2023-04-15T21:46:36.977Z,10.20
2023-04-15T21:49:04.288Z,10.20
2023-04-15T21:51:34.141Z,10.10
2023-04-15T21:54:00.868Z,10.10
2023-04-15T21:56:27.718Z,10.10
2023-04-15T21:58:56.410Z,10.10
2023-04-15T22:01:23.489Z,10.00
2023-04-15T22:03:50.639Z,10.00
2023-04-15T22:06:17.642Z,10.00
2023-04-15T22:08:56.078Z,10.00
2023-04-15T22:11:27.710Z,10.00
2023-04-15T22:13:55.276Z,10.00
2023-04-15T22:16:22.257Z,10.00
2023-04-15T22:18:49.253Z,10.00
2023-04-15T22:21:16.490Z,10.00
2023-04-15T22:23:46.352Z,9.90
2023-04-15T22:26:13.127Z,10.00
2023-04-15T22:28:39.865Z,10.00
2023-04-15T22:31:06.643Z,10.00
2023-04-15T22:33:33.893Z,9.90
2023-04-15T22:36:00.683Z,10.00
2023-04-15T22:38:27.502Z,10.00
2023-04-15T22:40:54.401Z,10.00
2023-04-15T22:43:21.284Z,10.00
2023-04-15T22:45:49.245Z,10.10
2023-04-15T22:48:16.244Z,10.00
2023-04-15T22:50:43.208Z,10.00
2023-04-15T22:53:10.007Z,10.00
2023-04-15T22:55:36.787Z,10.00
2023-04-15T22:58:03.559Z,9.90
2023-04-15T23:00:30.417Z,10.00
2023-04-15T23:02:57.387Z,9.90
2023-04-15T23:05:24.347Z,9.90
2023-04-15T23:07:51.344Z,9.90
2023-04-15T23:10:18.145Z,9.90
2023-04-15T23:12:45.002Z,9.90
2023-04-15T23:15:11.865Z,9.90
2023-04-15T23:17:39.003Z,9.90
2023-04-15T23:20:06.482Z,9.80
2023-04-15T23:22:38.043Z,9.70
2023-04-15T23:25:05.528Z,9.70
2023-04-15T23:27:32.387Z,9.70
2023-04-15T23:29:59.128Z,9.70
2023-04-15T23:32:27.398Z,9.60
2023-04-15T23:34:54.351Z,9.60
2023-04-15T23:37:21.242Z,9.60
2023-04-15T23:39:47.995Z,9.60
2023-04-15T23:42:14.773Z,9.60
2023-04-15T23:44:41.597Z,9.70
2023-04-15T23:47:08.427Z,9.80
2023-04-15T23:49:36.670Z,9.80
2023-04-15T23:52:03.738Z,9.80
2023-04-15T23:54:30.493Z,9.80
2023-04-15T23:56:58.275Z,9.70
2023-04-15T23:59:25.569Z,9.70
